Time;durP1;ratioP1;P1;durP2;ratioP2;P2;SDS_P1;SDS_P2;PMS_P1;PMS_P2;Temp;Humidity;BMP_temperature;BMP_pressure;BME280_temperature;BME280_humidity;BME280_pressure;Samples;Min_cycle;Max_cycle;Signal;HPM_P1;HPM_P2
2023/07/10 00:00:21;;;;;;;13.98;9.10;;;20.10;80.00;;;;;;5030017;28;20526;-82
2023/07/10 00:02:50;;;;;;;14.50;8.93;;;20.20;79.70;;;;;;5031209;28;20081;-82
2023/07/10 00:05:22;;;;;;;13.47;9.33;;;20.30;79.80;;;;;;5029794;28;20582;-82
2023/07/10 00:07:49;;;;;;;13.98;8.88;;;20.30;79.80;;;;;;5029392;28;20281;-82
2023/07/10 00:10:17;;;;;;;13.82;8.65;;;20.30;80.00;;;;;;5012287;28;20478;-82
2023/07/10 00:12:45;;;;;;;14.15;9.05;;;20.20;79.70;;;;;;5029924;28;20054;-82
2023/07/10 00:15:18;;;;;;;17.50;10.43;;;20.30;80.00;;;;;;5029488;28;20053;-83
2023/07/10 00:17:46;;;;;;;15.40;9.20;;;20.30;79.80;;;;;;5029243;28;20089;-82
2023/07/10 00:20:19;;;;;;;15.98;10.15;;;20.30;80.10;;;;;;5022938;28;20305;-82
2023/07/10 00:22:46;;;;;;;15.70;8.65;;;20.30;80.50;;;;;;5012763;28;20081;-81
2023/07/10 00:25:15;;;;;;;16.05;10.82;;;20.30;80.50;;;;;;5026806;28;20050;-82
2023/07/10 00:27:43;;;;;;;16.40;10.55;;;20.20;80.40;;;;;;5024720;28;20058;-82
2023/07/10 00:30:19;;;;;;;15.03;10.17;;;20.10;80.50;;;;;;4996769;28;20065;-82
2023/07/10 00:32:47;;;;;;;16.48;10.10;;;20.10;80.90;;;;;;5009693;28;20276;-82
2023/07/10 00:35:16;;;;;;;15.55;10.75;;;20.10;81.20;;;;;;5022240;28;20058;-82
2023/07/10 00:37:47;;;;;;;18.45;11.77;;;20.00;81.30;;;;;;5012348;28;20473;-82
2023/07/10 00:40:20;;;;;;;16.25;10.60;;;20.00;81.40;;;;;;5028170;28;20528;-82
2023/07/10 00:42:51;;;;;;;19.13;11.10;;;20.00;81.70;;;;;;5029149;28;20683;-82
2023/07/10 00:45:19;;;;;;;19.70;11.70;;;20.00;81.70;;;;;;5008752;28;20266;-82
2023/07/10 00:47:55;;;;;;;17.33;11.05;;;20.00;81.80;;;;;;5003797;28;20058;-82
2023/07/10 00:50:28;;;;;;;16.23;11.18;;;20.00;81.80;;;;;;5023083;28;20060;-82
2023/07/10 00:52:59;;;;;;;17.60;11.07;;;20.00;81.90;;;;;;5012535;28;20193;-82
2023/07/10 00:55:32;;;;;;;19.50;12.27;;;20.00;81.50;;;;;;5012479;28;20070;-82
2023/07/10 00:58:13;;;;;;;18.40;12.02;;;20.00;82.10;;;;;;5028802;28;20900;-81
2023/07/10 01:00:40;;;;;;;20.52;13.32;;;20.00;81.70;;;;;;5010346;28;20588;-82
2023/07/10 01:03:13;;;;;;;18.00;12.63;;;20.00;81.70;;;;;;5011528;28;20136;-82
2023/07/10 01:05:40;;;;;;;19.65;11.73;;;20.00;81.90;;;;;;5029087;28;20046;-82
2023/07/10 01:08:08;;;;;;;21.13;13.77;;;20.00;81.80;;;;;;5011673;28;20060;-82
2023/07/10 01:10:35;;;;;;;18.45;12.45;;;20.00;81.80;;;;;;5027734;28;20242;-82
2023/07/10 01:13:04;;;;;;;19.15;13.00;;;20.00;81.90;;;;;;5011768;28;20500;-82
2023/07/10 01:15:31;;;;;;;20.10;12.13;;;20.00;81.90;;;;;;5008156;28;20053;-82
2023/07/10 01:17:59;;;;;;;19.45;13.48;;;20.00;81.90;;;;;;5028017;28;20061;-82
2023/07/10 01:20:35;;;;;;;19.87;11.27;;;20.00;82.00;;;;;;5026351;28;20128;-82
2023/07/10 01:23:04;;;;;;;19.52;11.82;;;20.00;82.50;;;;;;5026312;28;20809;-81
2023/07/10 01:25:36;;;;;;;22.63;14.93;;;19.90;82.30;;;;;;5028847;28;20053;-82
2023/07/10 01:28:09;;;;;;;23.85;14.25;;;19.90;82.40;;;;;;5027951;28;20065;-82
2023/07/10 01:30:40;;;;;;;25.38;16.08;;;19.90;82.30;;;;;;5024188;28;20084;-82
2023/07/10 01:33:14;;;;;;;22.90;15.33;;;19.90;82.40;;;;;;5028538;28;20056;-82
2023/07/10 01:35:43;;;;;;;23.83;14.18;;;19.90;82.40;;;;;;5011262;28;20257;-82
2023/07/10 01:38:13;;;;;;;21.25;14.88;;;19.80;82.30;;;;;;5027381;28;20109;-82
2023/07/10 01:40:44;;;;;;;23.77;14.98;;;19.80;82.30;;;;;;5024821;28;20125;-82
2023/07/10 01:43:11;;;;;;;24.20;14.15;;;19.90;82.10;;;;;;5024670;28;20049;-82
2023/07/10 01:45:42;;;;;;;20.83;14.00;;;19.90;82.10;;;;;;5023936;28;20588;-82
2023/07/10 01:48:10;;;;;;;24.73;15.45;;;19.90;82.00;;;;;;5026914;28;20285;-82
2023/07/10 01:50:37;;;;;;;23.80;15.55;;;19.90;82.00;;;;;;5016184;28;20524;-82
2023/07/10 01:53:04;;;;;;;22.27;14.98;;;19.90;81.80;;;;;;5008558;28;20519;-82
2023/07/10 01:55:38;;;;;;;24.60;15.20;;;19.90;81.90;;;;;;5023095;28;20054;-82
2023/07/10 01:58:05;;;;;;;23.83;15.30;;;19.90;81.90;;;;;;5009071;28;20049;-82
2023/07/10 02:00:32;;;;;;;22.98;15.02;;;19.90;81.90;;;;;;5011702;28;20250;-82
2023/07/10 02:02:59;;;;;;;24.77;14.82;;;19.90;81.80;;;;;;5010462;28;20500;-80
2023/07/10 02:05:26;;;;;;;23.50;14.98;;;19.90;81.70;;;;;;5011752;28;20089;-81
2023/07/10 02:07:54;;;;;;;21.83;14.60;;;20.00;81.70;;;;;;5027369;28;20451;-82
2023/07/10 02:10:20;;;;;;;22.20;14.37;;;20.00;81.80;;;;;;5011569;28;20054;-82
2023/07/10 02:12:49;;;;;;;23.67;14.10;;;19.90;82.00;;;;;;4992482;28;20799;-82
2023/07/10 02:15:16;;;;;;;21.75;14.73;;;19.90;81.90;;;;;;5008616;28;20050;-82
2023/07/10 02:17:43;;;;;;;21.95;14.43;;;19.90;81.80;;;;;;5009509;28;20607;-82
2023/07/10 02:20:11;;;;;;;23.08;15.07;;;19.90;81.90;;;;;;5027018;28;20137;-82
2023/07/10 02:22:38;;;;;;;24.57;15.03;;;19.90;81.80;;;;;;5008489;28;20132;-82
2023/07/10 02:25:06;;;;;;;23.52;14.50;;;19.90;81.70;;;;;;5007419;28;20299;-82
2023/07/10 02:27:34;;;;;;;24.20;15.68;;;19.90;81.80;;;;;;5027943;28;20054;-82
2023/07/10 02:30:03;;;;;;;23.27;15.15;;;19.90;81.80;;;;;;5009960;28;20553;-82
2023/07/10 02:32:31;;;;;;;23.10;15.02;;;19.90;81.90;;;;;;5027530;28;20509;-82
2023/07/10 02:34:58;;;;;;;24.93;15.90;;;19.80;82.00;;;;;;5011150;28;20050;-82
2023/07/10 02:37:25;;;;;;;26.08;15.68;;;19.80;81.90;;;;;;5008327;28;20361;-82
2023/07/10 02:39:52;;;;;;;24.17;15.52;;;19.80;82.00;;;;;;5008597;28;20141;-82
2023/07/10 02:42:19;;;;;;;23.95;15.93;;;19.80;81.90;;;;;;5014508;28;20056;-82
2023/07/10 02:44:46;;;;;;;19.80;14.68;;;19.80;81.80;;;;;;5013675;28;20052;-82
2023/07/10 02:47:14;;;;;;;24.00;15.30;;;19.80;81.70;;;;;;5030065;28;20054;-82
2023/07/10 02:49:42;;;;;;;20.98;15.00;;;19.80;81.70;;;;;;5030526;28;20254;-82
2023/07/10 02:52:09;;;;;;;20.15;14.32;;;19.80;81.70;;;;;;5011094;28;20057;-82
2023/07/10 02:54:36;;;;;;;24.80;15.57;;;19.80;81.70;;;;;;5008216;28;20039;-82
2023/07/10 02:57:03;;;;;;;23.05;14.90;;;19.80;81.60;;;;;;5014318;28;20592;-82
2023/07/10 02:59:30;;;;;;;23.67;15.27;;;19.70;81.60;;;;;;5013949;28;20585;-82
2023/07/10 03:01:59;;;;;;;19.85;14.98;;;19.70;81.60;;;;;;5012943;28;20774;-82
2023/07/10 03:04:28;;;;;;;21.05;15.02;;;19.70;81.60;;;;;;5026132;28;20053;-82
2023/07/10 03:06:55;;;;;;;24.48;15.82;;;19.70;81.60;;;;;;5029204;28;20081;-82
2023/07/10 03:09:21;;;;;;;21.42;14.50;;;19.70;81.60;;;;;;5031790;28;20068;-82
2023/07/10 03:11:48;;;;;;;22.90;15.10;;;19.70;82.00;;;;;;5030361;28;20058;-82
2023/07/10 03:14:15;;;;;;;21.40;12.30;;;19.70;82.00;;;;;;5013654;28;20264;-82
2023/07/10 03:16:42;;;;;;;19.58;14.40;;;19.60;82.00;;;;;;5013939;28;20060;-82
2023/07/10 03:19:09;;;;;;;20.23;13.40;;;19.50;82.00;;;;;;5014231;28;20583;-82
2023/07/10 03:21:37;;;;;;;18.92;13.50;;;19.50;82.20;;;;;;5012617;28;20050;-82
2023/07/10 03:24:05;;;;;;;20.87;13.43;;;19.50;82.30;;;;;;5030053;28;20511;-82
2023/07/10 03:26:32;;;;;;;21.25;13.40;;;19.50;82.30;;;;;;5029603;28;20295;-82
2023/07/10 03:29:07;;;;;;;18.98;13.48;;;19.40;82.40;;;;;;5029914;28;20125;-82
2023/07/10 03:31:34;;;;;;;19.60;12.88;;;19.40;82.40;;;;;;5029427;28;20050;-82
2023/07/10 03:34:01;;;;;;;19.75;13.23;;;19.40;82.40;;;;;;5046078;28;20108;-81
2023/07/10 03:36:28;;;;;;;17.27;12.67;;;19.40;82.40;;;;;;5028024;28;20050;-82
2023/07/10 03:38:56;;;;;;;18.50;12.10;;;19.30;82.50;;;;;;5028527;28;20830;-82
2023/07/10 03:41:23;;;;;;;19.75;13.05;;;19.30;82.50;;;;;;5029403;28;20136;-82
2023/07/10 03:43:50;;;;;;;18.95;12.50;;;19.30;82.30;;;;;;5028101;28;20058;-82
2023/07/10 03:46:18;;;;;;;19.98;12.40;;;19.30;82.30;;;;;;5030055;28;20064;-82
2023/07/10 03:48:45;;;;;;;19.80;13.00;;;19.30;82.30;;;;;;5028309;28;20049;-82
2023/07/10 03:51:12;;;;;;;19.48;13.65;;;19.30;82.20;;;;;;5028475;28;20273;-82
2023/07/10 03:53:39;;;;;;;19.95;13.20;;;19.30;82.40;;;;;;5030553;28;20522;-82
2023/07/10 03:56:08;;;;;;;21.15;13.88;;;19.30;82.80;;;;;;5028139;28;20531;-82
2023/07/10 03:58:38;;;;;;;20.80;13.35;;;19.20;83.00;;;;;;5030302;28;20054;-82
2023/07/10 04:01:05;;;;;;;19.77;13.43;;;19.20;82.90;;;;;;5029554;28;20533;-82
2023/07/10 04:03:34;;;;;;;19.85;13.57;;;19.10;83.10;;;;;;5030553;28;20564;-81
2023/07/10 04:06:03;;;;;;;21.30;13.63;;;19.10;83.20;;;;;;5013644;28;20060;-81
2023/07/10 04:08:32;;;;;;;22.27;14.32;;;19.10;83.40;;;;;;5027846;28;20579;-82
2023/07/10 04:11:02;;;;;;;19.88;12.80;;;19.10;83.50;;;;;;5029501;28;20053;-81
2023/07/10 04:13:30;;;;;;;18.30;13.53;;;19.10;83.80;;;;;;5028972;28;20136;-82
2023/07/10 04:15:59;;;;;;;19.42;14.73;;;19.00;83.70;;;;;;5029466;28;20273;-82
2023/07/10 04:18:29;;;;;;;22.15;14.15;;;19.00;83.70;;;;;;5031339;28;20061;-82
2023/07/10 04:20:56;;;;;;;17.85;13.48;;;19.00;83.90;;;;;;5044886;28;20124;-82
2023/07/10 04:23:23;;;;;;;21.20;15.15;;;19.00;83.90;;;;;;5045930;28;20066;-82
2023/07/10 04:25:50;;;;;;;21.07;14.87;;;19.00;83.90;;;;;;5045415;28;20053;-82
2023/07/10 04:28:18;;;;;;;22.00;14.70;;;19.00;83.90;;;;;;5011389;28;20276;-82
2023/07/10 04:30:47;;;;;;;20.35;14.43;;;19.00;84.00;;;;;;5027769;28;20053;-82
2023/07/10 04:33:14;;;;;;;20.27;14.70;;;19.00;83.90;;;;;;5029068;28;20516;-82
2023/07/10 04:35:41;;;;;;;19.33;12.40;;;19.10;83.90;;;;;;5028422;28;20084;-82
2023/07/10 04:38:09;;;;;;;14.53;9.87;;;19.10;84.00;;;;;;5030714;28;20139;-82
2023/07/10 04:40:36;;;;;;;15.57;11.05;;;19.10;84.00;;;;;;5012832;28;20254;-82
2023/07/10 04:43:03;;;;;;;16.63;10.73;;;19.10;83.70;;;;;;5029117;28;20493;-81
2023/07/10 04:45:31;;;;;;;15.15;9.88;;;19.00;83.60;;;;;;5030937;28;20060;-82
2023/07/10 04:47:59;;;;;;;15.70;10.27;;;19.00;83.80;;;;;;5028560;28;20054;-82
2023/07/10 04:50:27;;;;;;;17.30;10.90;;;19.00;83.90;;;;;;5029072;28;20806;-81
2023/07/10 04:52:54;;;;;;;16.05;10.30;;;18.90;83.60;;;;;;5009344;28;20269;-81
2023/07/10 04:55:21;;;;;;;10.25;6.75;;;18.90;83.60;;;;;;5023503;28;20046;-82
2023/07/10 04:57:47;;;;;;;12.38;7.20;;;18.90;83.90;;;;;;5029182;28;20066;-82
2023/07/10 05:00:15;;;;;;;10.02;6.00;;;18.90;83.60;;;;;;5028653;28;20053;-82
2023/07/10 05:02:42;;;;;;;7.50;3.40;;;18.90;83.00;;;;;;5028524;28;20050;-82
2023/07/10 05:05:11;;;;;;;8.20;5.07;;;18.90;82.50;;;;;;5027329;28;20274;-82
2023/07/10 05:07:37;;;;;;;7.63;4.00;;;18.80;82.10;;;;;;5028913;28;20054;-81
2023/07/10 05:10:05;;;;;;;9.38;4.15;;;18.80;81.70;;;;;;5028439;28;20670;-82
2023/07/10 05:12:32;;;;;;;7.50;3.20;;;18.80;81.50;;;;;;5028545;28;20124;-82
2023/07/10 05:14:59;;;;;;;7.50;3.20;;;18.70;81.50;;;;;;5027934;28;20056;-82
2023/07/10 05:17:26;;;;;;;6.78;3.22;;;18.70;81.20;;;;;;5028572;28;20308;-82
2023/07/10 05:19:53;;;;;;;6.57;2.97;;;18.60;81.30;;;;;;5030211;28;20054;-81
2023/07/10 05:22:22;;;;;;;6.80;3.00;;;18.60;81.20;;;;;;5009779;28;20045;-82
2023/07/10 05:24:49;;;;;;;6.63;2.38;;;18.60;81.20;;;;;;5028618;28;20140;-81
2023/07/10 05:27:16;;;;;;;6.93;2.30;;;18.60;81.10;;;;;;5030482;28;20137;-82
2023/07/10 05:29:43;;;;;;;5.40;2.30;;;18.60;80.80;;;;;;5028290;28;20803;-82
2023/07/10 05:32:10;;;;;;;5.75;2.10;;;18.60;80.60;;;;;;5026682;28;20046;-82
2023/07/10 05:34:36;;;;;;;5.18;2.00;;;18.60;80.20;;;;;;5028519;28;20053;-82
2023/07/10 05:37:04;;;;;;;5.57;2.50;;;18.60;79.80;;;;;;5026572;28;20117;-82
2023/07/10 05:39:32;;;;;;;7.23;2.10;;;18.50;80.10;;;;;;5045494;28;20057;-81
2023/07/10 05:41:59;;;;;;;5.43;2.20;;;18.50;80.20;;;;;;5010312;28;20268;-81
2023/07/10 05:44:27;;;;;;;6.00;2.10;;;18.50;80.10;;;;;;5030441;28;20524;-81
2023/07/10 05:46:55;;;;;;;5.28;2.13;;;18.40;80.00;;;;;;5011695;28;20197;-81
2023/07/10 05:49:24;;;;;;;5.80;2.03;;;18.40;80.30;;;;;;5028860;28;20160;-81
2023/07/10 05:51:51;;;;;;;7.20;2.50;;;18.40;80.30;;;;;;5027744;28;20053;-81
2023/07/10 05:54:18;;;;;;;6.45;2.10;;;18.40;80.70;;;;;;5012038;28;20265;-82
2023/07/10 05:56:47;;;;;;;5.30;1.92;;;18.50;80.60;;;;;;5032324;28;20064;-81
2023/07/10 05:59:15;;;;;;;6.40;2.08;;;18.50;80.60;;;;;;5040022;28;20137;-81
2023/07/10 06:01:42;;;;;;;5.78;1.90;;;18.50;80.70;;;;;;5036169;28;20057;-81
2023/07/10 06:04:09;;;;;;;5.50;2.20;;;18.50;80.60;;;;;;5029663;28;20053;-81
2023/07/10 06:06:36;;;;;;;4.80;2.10;;;18.50;80.70;;;;;;5010795;28;20255;-81
2023/07/10 06:09:03;;;;;;;4.57;2.00;;;18.50;80.40;;;;;;5027987;28;20060;-82
2023/07/10 06:11:30;;;;;;;5.70;2.40;;;18.50;80.30;;;;;;5019487;28;20445;-83
2023/07/10 06:13:58;;;;;;;4.45;2.13;;;18.50;80.50;;;;;;5009493;28;20054;-83
2023/07/10 06:16:25;;;;;;;6.40;2.40;;;18.60;80.70;;;;;;5009818;28;20104;-83
2023/07/10 06:18:52;;;;;;;8.98;2.50;;;18.60;80.80;;;;;;5020554;28;20853;-83
2023/07/10 06:21:19;;;;;;;6.68;2.40;;;18.60;81.00;;;;;;5037472;28;20049;-83
2023/07/10 06:23:46;;;;;;;7.20;2.33;;;18.60;81.20;;;;;;5024892;28;20053;-82
2023/07/10 06:26:13;;;;;;;7.50;2.60;;;18.70;81.10;;;;;;5047300;28;20160;-83
2023/07/10 06:28:39;;;;;;;7.27;2.10;;;18.70;81.10;;;;;;5045324;28;20077;-82
2023/07/10 06:31:09;;;;;;;5.53;2.08;;;18.70;81.10;;;;;;5048695;28;20269;-83
2023/07/10 06:33:37;;;;;;;7.72;1.90;;;18.70;81.10;;;;;;5029240;28;20049;-82
2023/07/10 06:36:06;;;;;;;7.32;1.65;;;18.80;80.80;;;;;;5013004;28;20575;-82
2023/07/10 06:38:33;;;;;;;5.75;1.80;;;18.80;80.50;;;;;;5022308;28;20132;-83
2023/07/10 06:41:00;;;;;;;7.50;2.47;;;18.80;80.40;;;;;;5022917;28;20055;-75
2023/07/10 06:43:27;;;;;;;6.57;2.20;;;18.80;79.70;;;;;;5018396;28;20371;-76
2023/07/10 06:45:56;;;;;;;7.88;2.15;;;18.80;79.70;;;;;;5027775;28;20054;-76
2023/07/10 06:48:25;;;;;;;6.05;1.73;;;18.80;79.80;;;;;;5021841;28;20057;-76
2023/07/10 06:50:52;;;;;;;6.65;2.10;;;18.80;79.60;;;;;;5025276;28;20514;-75
2023/07/10 06:53:20;;;;;;;5.77;2.30;;;18.90;79.80;;;;;;5017714;28;20049;-76
2023/07/10 06:55:53;;;;;;;7.20;2.58;;;18.90;80.10;;;;;;5036909;28;20249;-76
2023/07/10 06:58:19;;;;;;;7.97;2.47;;;18.90;80.40;;;;;;5036380;28;20499;-76
2023/07/10 07:00:46;;;;;;;6.63;2.28;;;18.90;80.60;;;;;;5037917;28;20077;-75
2023/07/10 07:03:13;;;;;;;6.60;2.28;;;19.00;80.30;;;;;;5032135;28;20496;-76
2023/07/10 07:05:43;;;;;;;6.93;2.20;;;19.00;80.40;;;;;;5027047;28;20597;-76
2023/07/10 07:08:10;;;;;;;5.80;1.73;;;19.10;80.00;;;;;;5022566;28;20351;-77
2023/07/10 07:10:41;;;;;;;8.88;2.60;;;19.10;79.50;;;;;;5022190;28;20618;-77
2023/07/10 07:13:08;;;;;;;6.00;2.03;;;19.10;79.80;;;;;;5026747;28;20057;-77
2023/07/10 07:15:35;;;;;;;5.75;2.47;;;19.20;79.30;;;;;;5031608;28;20535;-77
2023/07/10 07:18:03;;;;;;;6.03;1.80;;;19.30;78.80;;;;;;5022345;28;20053;-78
2023/07/10 07:20:30;;;;;;;6.80;2.10;;;19.30;78.20;;;;;;5020424;28;20341;-77
2023/07/10 07:22:59;;;;;;;7.00;1.95;;;19.30;78.10;;;;;;5026070;28;20523;-77
2023/07/10 07:25:26;;;;;;;6.32;2.03;;;19.40;78.40;;;;;;5017247;28;20058;-76
2023/07/10 07:27:53;;;;;;;8.55;2.60;;;19.40;77.80;;;;;;5018942;28;20485;-77
2023/07/10 07:30:21;;;;;;;6.53;2.10;;;19.40;77.60;;;;;;5022954;28;20058;-76
2023/07/10 07:32:49;;;;;;;5.43;1.98;;;19.50;77.70;;;;;;5039902;28;20270;-76
2023/07/10 07:35:16;;;;;;;6.53;1.90;;;19.50;77.60;;;;;;5025173;28;20133;-76
2023/07/10 07:37:43;;;;;;;6.97;1.58;;;19.50;76.90;;;;;;5014293;28;20050;-76
2023/07/10 07:40:16;;;;;;;5.10;1.50;;;19.70;76.40;;;;;;5030827;28;20052;-76
2023/07/10 07:42:44;;;;;;;7.23;1.80;;;19.70;75.70;;;;;;5030986;28;20050;-75
2023/07/10 07:45:11;;;;;;;7.40;2.20;;;19.70;75.80;;;;;;5036706;28;20784;-76
2023/07/10 07:47:40;;;;;;;7.38;2.15;;;19.70;75.20;;;;;;5034807;28;20053;-76
2023/07/10 07:50:08;;;;;;;5.82;1.80;;;19.80;74.70;;;;;;5034377;28;20048;-77
2023/07/10 07:52:35;;;;;;;6.97;1.75;;;19.80;75.10;;;;;;5033271;28;20045;-77
2023/07/10 07:55:02;;;;;;;7.27;1.77;;;19.90;74.60;;;;;;5031325;28;20100;-77
2023/07/10 07:57:30;;;;;;;7.03;1.75;;;19.90;74.70;;;;;;5030235;28;20256;-77
2023/07/10 07:59:58;;;;;;;10.68;1.80;;;20.00;74.30;;;;;;5028879;28;20081;-76
2023/07/10 08:02:26;;;;;;;8.43;1.90;;;20.00;73.30;;;;;;5031795;28;20042;-76
2023/07/10 08:04:54;;;;;;;7.85;1.55;;;20.00;72.90;;;;;;5031013;28;20058;-76
2023/07/10 08:07:20;;;;;;;6.47;1.80;;;20.10;73.20;;;;;;5024617;28;20149;-78
2023/07/10 08:09:47;;;;;;;6.65;1.75;;;20.10;73.40;;;;;;5029089;28;20254;-76
2023/07/10 08:12:14;;;;;;;8.70;2.35;;;20.10;73.70;;;;;;5031835;28;20045;-77
2023/07/10 08:14:42;;;;;;;9.32;2.08;;;20.20;73.20;;;;;;5016289;28;20493;-76
2023/07/10 08:17:09;;;;;;;6.85;2.10;;;20.30;73.40;;;;;;5028410;28;20514;-76
2023/07/10 08:19:36;;;;;;;8.20;2.10;;;20.30;72.80;;;;;;5028817;28;20136;-76
2023/07/10 08:22:03;;;;;;;5.35;1.60;;;20.40;72.40;;;;;;5032364;28;20277;-76
2023/07/10 08:24:30;;;;;;;7.70;2.00;;;20.40;72.90;;;;;;5029711;28;20058;-75
2023/07/10 08:26:57;;;;;;;9.35;1.80;;;20.50;72.30;;;;;;5030732;28;20136;-77
2023/07/10 08:29:29;;;;;;;7.70;1.98;;;20.50;71.70;;;;;;5030486;28;20049;-77
2023/07/10 08:32:00;;;;;;;4.80;1.27;;;20.50;71.90;;;;;;5027579;28;20582;-78
2023/07/10 08:34:29;;;;;;;6.55;1.48;;;20.60;70.70;;;;;;5025743;28;20272;-77
2023/07/10 08:36:57;;;;;;;7.70;2.00;;;20.60;70.80;;;;;;5027669;28;20045;-75
2023/07/10 08:39:25;;;;;;;6.90;1.92;;;20.60;71.00;;;;;;5023210;28;20042;-75
2023/07/10 08:41:54;;;;;;;6.57;1.75;;;20.70;71.20;;;;;;5030578;28;20481;-81
2023/07/10 08:44:27;;;;;;;8.27;2.13;;;20.80;69.50;;;;;;5028110;28;20057;-80
2023/07/10 08:46:54;;;;;;;4.72;1.40;;;20.80;69.40;;;;;;5029707;28;20773;-82
2023/07/10 08:49:30;;;;;;;7.75;1.67;;;20.90;69.20;;;;;;5029436;28;20513;-81
2023/07/10 08:52:03;;;;;;;6.95;1.60;;;20.90;69.10;;;;;;5030943;28;20566;-83
2023/07/10 08:54:30;;;;;;;7.22;2.00;;;20.90;68.50;;;;;;5024525;28;20092;-81
2023/07/10 08:57:09;;;;;;;5.63;1.23;;;21.00;69.00;;;;;;5028980;28;20050;-84
2023/07/10 08:59:52;;;;;;;8.38;1.67;;;21.00;69.40;;;;;;5025770;28;20320;-84
2023/07/10 09:02:37;;;;;;;8.05;2.35;;;21.10;69.10;;;;;;5013686;28;20059;-84
2023/07/10 09:05:08;;;;;;;7.03;1.60;;;21.10;68.60;;;;;;5033746;28;20050;-81
2023/07/10 09:07:42;;;;;;;7.03;2.10;;;21.20;67.70;;;;;;5037167;28;20056;-83
2023/07/10 09:10:22;;;;;;;6.80;1.87;;;21.20;67.30;;;;;;5035248;28;20098;-81
2023/07/10 09:13:00;;;;;;;8.55;2.40;;;21.30;67.70;;;;;;5033603;28;20295;-84
2023/07/10 09:15:35;;;;;;;8.35;1.83;;;21.30;68.20;;;;;;5019291;28;20057;-82
2023/07/10 09:18:11;;;;;;;5.63;1.45;;;21.30;68.70;;;;;;5020903;28;20072;-81
2023/07/10 09:20:41;;;;;;;7.30;1.80;;;21.30;68.00;;;;;;5030876;28;20056;-82
2023/07/10 09:23:20;;;;;;;6.67;2.03;;;21.40;67.30;;;;;;5023703;28;20115;-84
2023/07/10 09:25:54;;;;;;;9.35;2.22;;;21.40;68.10;;;;;;5031101;28;20257;-82
2023/07/10 09:28:22;;;;;;;6.90;1.80;;;21.40;69.00;;;;;;5021284;28;20087;-82
2023/07/10 09:30:57;;;;;;;7.45;2.10;;;21.50;67.00;;;;;;5039624;28;20104;-82
2023/07/10 09:33:37;;;;;;;7.40;2.03;;;21.50;67.10;;;;;;5032218;28;20206;-81
2023/07/10 09:36:13;;;;;;;7.27;1.90;;;21.50;67.20;;;;;;5027540;28;20050;-81
2023/07/10 09:38:44;;;;;;;8.60;2.03;;;21.50;68.20;;;;;;5028629;28;20282;-83
2023/07/10 09:41:13;;;;;;;8.05;2.22;;;21.50;68.10;;;;;;5020954;28;20520;-80
2023/07/10 09:43:50;;;;;;;10.50;2.63;;;21.50;67.30;;;;;;5025795;28;20211;-82
2023/07/10 09:46:17;;;;;;;7.95;2.30;;;21.60;67.40;;;;;;5029980;28;20058;-83
2023/07/10 09:48:47;;;;;;;10.83;2.63;;;21.60;68.10;;;;;;5032056;28;20049;-82
2023/07/10 09:51:17;;;;;;;8.25;1.98;;;21.70;67.50;;;;;;5026461;28;20269;-82
2023/07/10 09:53:49;;;;;;;6.78;1.45;;;21.70;67.80;;;;;;5027199;28;20050;-82
2023/07/10 09:56:27;;;;;;;8.68;2.45;;;21.70;66.90;;;;;;5010317;28;20058;-82
2023/07/10 09:58:55;;;;;;;5.10;2.03;;;21.70;67.50;;;;;;5006542;28;20592;-82
2023/07/10 10:01:25;;;;;;;9.20;2.10;;;21.70;66.80;;;;;;5027163;28;20050;-82
2023/07/10 10:03:54;;;;;;;6.30;1.88;;;21.80;66.60;;;;;;5026908;28;20707;-82
2023/07/10 10:06:24;;;;;;;10.20;2.15;;;21.80;65.70;;;;;;5026464;28;20050;-84
2023/07/10 10:08:52;;;;;;;9.35;2.25;;;21.90;65.10;;;;;;5044464;28;20157;-83
2023/07/10 10:11:32;;;;;;;8.15;2.20;;;21.90;66.00;;;;;;5010202;28;20666;-82
2023/07/10 10:14:03;;;;;;;6.77;2.37;;;21.90;65.80;;;;;;5024703;28;20204;-81
2023/07/10 10:16:36;;;;;;;7.22;2.00;;;21.90;65.60;;;;;;5024784;28;20273;-83
2023/07/10 10:19:07;;;;;;;8.18;2.20;;;21.90;64.90;;;;;;5032264;28;20058;-81
2023/07/10 10:21:36;;;;;;;8.05;1.67;;;22.00;64.50;;;;;;5033293;28;20045;-81
2023/07/10 10:24:07;;;;;;;7.65;2.20;;;22.00;65.50;;;;;;5022530;28;20061;-81
2023/07/10 10:26:56;;;;;;;7.43;1.90;;;22.00;66.30;;;;;;5022275;28;20049;-81
2023/07/10 10:29:44;;;;;;;5.35;1.55;;;22.00;66.50;;;;;;5016823;28;20277;-82
2023/07/10 10:32:23;;;;;;;9.98;2.08;;;22.10;66.40;;;;;;5015880;28;20053;-82
2023/07/10 10:35:02;;;;;;;9.10;2.25;;;22.10;66.00;;;;;;5021772;28;20089;-80
2023/07/10 10:37:43;;;;;;;7.80;1.73;;;22.20;65.70;;;;;;5007757;28;20065;-80
2023/07/10 10:40:22;;;;;;;6.17;1.40;;;22.30;63.70;;;;;;5024212;28;20550;-81
2023/07/10 10:42:53;;;;;;;9.10;2.22;;;22.20;63.70;;;;;;5019688;28;20364;-82
2023/07/10 10:45:27;;;;;;;9.10;1.98;;;22.30;65.20;;;;;;5022851;28;20160;-81
2023/07/10 10:48:04;;;;;;;6.30;1.65;;;22.30;63.70;;;;;;5040268;28;20094;-81
2023/07/10 10:50:45;;;;;;;4.20;1.67;;;22.30;63.20;;;;;;5023700;28;20069;-80
2023/07/10 10:53:25;;;;;;;10.07;2.77;;;22.30;63.90;;;;;;5024748;28;20133;-80
2023/07/10 10:56:02;;;;;;;7.55;2.30;;;22.30;63.70;;;;;;5014410;28;20317;-82
2023/07/10 10:58:49;;;;;;;7.45;1.85;;;22.30;63.80;;;;;;5023414;28;20050;-80
2023/07/10 11:01:33;;;;;;;8.25;2.20;;;22.30;63.70;;;;;;5028710;28;20056;-79
2023/07/10 11:04:11;;;;;;;7.07;1.75;;;22.30;63.60;;;;;;5029416;28;20061;-80
2023/07/10 11:06:46;;;;;;;10.27;2.10;;;22.30;64.10;;;;;;5020603;28;20051;-81
2023/07/10 11:09:19;;;;;;;11.13;2.10;;;22.40;64.40;;;;;;5028218;28;20662;-82
2023/07/10 11:11:50;;;;;;;9.00;1.95;;;22.50;63.60;;;;;;5024437;28;20541;-82
2023/07/10 11:14:19;;;;;;;6.55;1.80;;;22.50;63.50;;;;;;5025570;28;20050;-83
2023/07/10 11:16:46;;;;;;;7.57;2.20;;;22.60;63.00;;;;;;5020548;28;20046;-83
2023/07/10 11:19:17;;;;;;;6.43;1.57;;;22.60;63.00;;;;;;5013932;28;20054;-82
2023/07/10 11:21:44;;;;;;;7.03;1.83;;;22.70;62.50;;;;;;5029020;28;20336;-82
2023/07/10 11:24:31;;;;;;;6.72;1.40;;;22.70;62.50;;;;;;5013038;28;20046;-81
2023/07/10 11:27:11;;;;;;;8.80;1.80;;;22.70;61.60;;;;;;5030270;28;20065;-82
2023/07/10 11:29:41;;;;;;;7.82;1.58;;;22.70;60.30;;;;;;5029328;28;20132;-82
2023/07/10 11:32:17;;;;;;;7.57;1.97;;;22.70;60.50;;;;;;5029204;28;20056;-81
2023/07/10 11:34:53;;;;;;;9.95;1.80;;;22.70;60.60;;;;;;5027276;28;20262;-80
2023/07/10 11:38:08;;;;;;;6.00;1.35;;;22.70;59.00;;;;;;5041052;28;20133;-77
2023/07/10 11:40:54;;;;;;;8.13;1.80;;;22.60;59.60;;;;;;5031925;28;20061;-77
2023/07/10 11:43:57;;;;;;;7.05;1.80;;;22.50;60.60;;;;;;5041768;28;20696;-77
2023/07/10 11:46:31;;;;;;;6.00;1.60;;;22.50;61.30;;;;;;4997882;28;20105;-78
2023/07/10 11:49:22;;;;;;;8.43;1.80;;;22.60;59.20;;;;;;5026051;28;20292;-81
2023/07/10 11:52:28;;;;;;;7.55;1.50;;;22.70;59.50;;;;;;5026541;28;20074;-80
2023/07/10 11:55:17;;;;;;;9.25;1.90;;;22.70;60.40;;;;;;5027940;28;20732;-82
2023/07/10 11:57:45;;;;;;;7.03;1.67;;;22.80;59.80;;;;;;5010553;28;20503;-81
2023/07/10 12:00:26;;;;;;;8.77;1.33;;;22.80;59.20;;;;;;5007809;28;20061;-80
2023/07/10 12:02:56;;;;;;;6.05;1.55;;;22.90;59.30;;;;;;5024542;28;20738;-80
2023/07/10 12:05:25;;;;;;;7.22;1.67;;;22.90;59.50;;;;;;5013180;28;20050;-80
2023/07/10 12:07:55;;;;;;;5.65;1.30;;;23.00;58.70;;;;;;5026284;28;20206;-79
2023/07/10 12:10:22;;;;;;;7.72;1.05;;;23.00;58.50;;;;;;5023809;28;20142;-79
2023/07/10 12:12:50;;;;;;;8.40;1.30;;;23.00;59.10;;;;;;5023666;28;20148;-80
2023/07/10 12:15:18;;;;;;;7.55;1.63;;;23.00;58.10;;;;;;5015613;28;20293;-77
2023/07/10 12:17:45;;;;;;;6.00;1.30;;;23.00;57.40;;;;;;5020936;28;20054;-77
2023/07/10 12:20:26;;;;;;;7.45;1.73;;;23.00;57.20;;;;;;5029434;28;20052;-77
2023/07/10 12:22:54;;;;;;;6.47;1.40;;;23.00;58.60;;;;;;5018940;28;20148;-77
2023/07/10 12:25:22;;;;;;;7.93;1.80;;;23.10;59.10;;;;;;5017371;28;20601;-77
2023/07/10 12:27:52;;;;;;;7.47;1.60;;;23.10;58.50;;;;;;5020409;28;20257;-77
2023/07/10 12:30:22;;;;;;;5.13;1.17;;;23.10;57.80;;;;;;5021306;28;20508;-77
2023/07/10 12:32:51;;;;;;;7.68;1.50;;;23.10;58.30;;;;;;5024830;28;20160;-78
2023/07/10 12:35:30;;;;;;;5.88;1.30;;;23.10;58.10;;;;;;5023462;28;20046;-78
2023/07/10 12:38:03;;;;;;;6.23;1.27;;;23.20;57.70;;;;;;5021995;28;20524;-78
2023/07/10 12:40:31;;;;;;;6.38;1.02;;;23.20;56.70;;;;;;5028584;28;21000;-78
2023/07/10 12:43:08;;;;;;;5.72;1.50;;;23.20;57.40;;;;;;5028287;28;20130;-76
2023/07/10 12:45:35;;;;;;;5.05;1.00;;;23.20;57.10;;;;;;5030598;28;20053;-76
2023/07/10 12:48:10;;;;;;;5.20;1.13;;;23.20;57.10;;;;;;5032199;28;20057;-77
2023/07/10 12:50:42;;;;;;;4.67;0.93;;;23.20;55.90;;;;;;5012382;28;20050;-78
2023/07/10 12:53:18;;;;;;;3.63;1.20;;;23.10;55.90;;;;;;5029285;28;20375;-77